sensor_id;sensor_type;location;lat;lon;timestamp;pressure;altitude;pressure_sealevel;temperature;humidity
69257;BME280;56376;53.356;-1.748;2023-04-19T00:02:17;100912.66;;;6.74;100.00
69257;BME280;56376;53.356;-1.748;2023-04-19T00:04:43;100912.63;;;6.69;100.00
69257;BME280;56376;53.356;-1.748;2023-04-19T00:07:12;100916.94;;;6.67;100.00
69257;BME280;56376;53.356;-1.748;2023-04-19T00:09:38;100914.34;;;6.64;100.00
69257;BME280;56376;53.356;-1.748;2023-04-19T00:12:03;100919.56;;;6.65;100.00
69257;BME280;56376;53.356;-1.748;2023-04-19T00:14:29;100910.88;;;6.62;100.00
69257;BME280;56376;53.356;-1.748;2023-04-19T00:16:54;100901.38;;;6.64;100.00
69257;BME280;56376;53.356;-1.748;2023-04-19T00:19:20;100900.50;;;6.63;100.00
69257;BME280;56376;53.356;-1.748;2023-04-19T00:21:46;100904.84;;;6.66;100.00
69257;BME280;56376;53.356;-1.748;2023-04-19T00:24:12;100910.03;;;6.66;100.00
69257;BME280;56376;53.356;-1.748;2023-04-19T00:26:37;100897.03;;;6.67;100.00
69257;BME280;56376;53.356;-1.748;2023-04-19T00:29:02;100899.66;;;6.66;100.00
69257;BME280;56376;53.356;-1.748;2023-04-19T00:31:28;100901.38;;;6.61;100.00
69257;BME280;56376;53.356;-1.748;2023-04-19T00:33:53;100900.50;;;6.59;100.00
69257;BME280;56376;53.356;-1.748;2023-04-19T00:36:18;100891.00;;;6.58;100.00
69257;BME280;56376;53.356;-1.748;2023-04-19T00:38:44;100890.09;;;6.57;100.00
69257;BME280;56376;53.356;-1.748;2023-04-19T00:41:10;100902.22;;;6.54;100.00
69257;BME280;56376;53.356;-1.748;2023-04-19T00:43:35;100891.81;;;6.47;100.00
69257;BME280;56376;53.356;-1.748;2023-04-19T00:46:01;100887.50;;;6.46;100.00
69257;BME280;56376;53.356;-1.748;2023-04-19T00:48:26;100865.88;;;6.43;100.00
69257;BME280;56376;53.356;-1.748;2023-04-19T00:50:52;100871.91;;;6.40;100.00
69257;BME280;56376;53.356;-1.748;2023-04-19T00:53:18;100888.34;;;6.42;100.00
69257;BME280;56376;53.356;-1.748;2023-04-19T00:55:43;100874.50;;;6.36;100.00
69257;BME280;56376;53.356;-1.748;2023-04-19T00:58:09;100881.44;;;6.35;100.00
69257;BME280;56376;53.356;-1.748;2023-04-19T01:00:35;100883.13;;;6.25;100.00
69257;BME280;56376;53.356;-1.748;2023-04-19T01:03:01;100871.88;;;6.28;100.00
69257;BME280;56376;53.356;-1.748;2023-04-19T01:05:26;100884.88;;;6.33;100.00
69257;BME280;56376;53.356;-1.748;2023-04-19T01:07:52;100876.22;;;6.37;100.00
69257;BME280;56376;53.356;-1.748;2023-04-19T01:10:17;100866.69;;;6.37;100.00
69257;BME280;56376;53.356;-1.748;2023-04-19T01:12:43;100869.31;;;6.42;100.00
69257;BME280;56376;53.356;-1.748;2023-04-19T01:15:08;100871.03;;;6.44;100.00
69257;BME280;56376;53.356;-1.748;2023-04-19T01:17:34;100874.50;;;6.45;100.00
69257;BME280;56376;53.356;-1.748;2023-04-19T01:20:01;100868.44;;;6.44;100.00
69257;BME280;56376;53.356;-1.748;2023-04-19T01:22:28;100862.38;;;6.42;100.00
69257;BME280;56376;53.356;-1.748;2023-04-19T01:24:55;100871.03;;;6.44;100.00
69257;BME280;56376;53.356;-1.748;2023-04-19T01:27:20;100858.09;;;6.43;100.00
69257;BME280;56376;53.356;-1.748;2023-04-19T01:29:46;100855.50;;;6.43;100.00
69257;BME280;56376;53.356;-1.748;2023-04-19T01:32:11;100849.41;;;6.44;100.00
69257;BME280;56376;53.356;-1.748;2023-04-19T01:34:39;100856.34;;;6.49;100.00
69257;BME280;56376;53.356;-1.748;2023-04-19T01:37:06;100849.44;;;6.45;100.00
69257;BME280;56376;53.356;-1.748;2023-04-19T01:39:31;100860.69;;;6.46;100.00
69257;BME280;56376;53.356;-1.748;2023-04-19T01:41:57;100868.47;;;6.46;100.00
69257;BME280;56376;53.356;-1.748;2023-04-19T01:44:22;100845.09;;;6.47;100.00
69257;BME280;56376;53.356;-1.748;2023-04-19T01:46:47;100843.38;;;6.48;100.00
69257;BME280;56376;53.356;-1.748;2023-04-19T01:49:13;100845.09;;;6.49;100.00
69257;BME280;56376;53.356;-1.748;2023-04-19T01:51:38;100843.38;;;6.49;100.00
69257;BME280;56376;53.356;-1.748;2023-04-19T01:54:04;100833.84;;;6.44;100.00
69257;BME280;56376;53.356;-1.748;2023-04-19T01:56:29;100823.44;;;6.39;100.00
69257;BME280;56376;53.356;-1.748;2023-04-19T01:58:55;100820.00;;;6.40;100.00
69257;BME280;56376;53.356;-1.748;2023-04-19T02:01:20;100829.53;;;6.43;100.00
69257;BME280;56376;53.356;-1.748;2023-04-19T02:03:46;100817.41;;;6.36;100.00
69257;BME280;56376;53.356;-1.748;2023-04-19T02:06:12;100820.88;;;6.44;100.00
69257;BME280;56376;53.356;-1.748;2023-04-19T02:08:41;100820.03;;;6.48;100.00
69257;BME280;56376;53.356;-1.748;2023-04-19T02:11:07;100820.84;;;6.42;100.00
69257;BME280;56376;53.356;-1.748;2023-04-19T02:13:33;100814.81;;;6.43;100.00
69257;BME280;56376;53.356;-1.748;2023-04-19T02:15:58;100814.81;;;6.40;100.00
69257;BME280;56376;53.356;-1.748;2023-04-19T02:18:26;100816.53;;;6.41;100.00
69257;BME280;56376;53.356;-1.748;2023-04-19T02:20:54;100823.47;;;6.45;100.00
69257;BME280;56376;53.356;-1.748;2023-04-19T02:23:19;100816.53;;;6.47;100.00
69257;BME280;56376;53.356;-1.748;2023-04-19T02:25:45;100812.22;;;6.42;100.00
69257;BME280;56376;53.356;-1.748;2023-04-19T02:28:10;100807.91;;;6.45;100.00
69257;BME280;56376;53.356;-1.748;2023-04-19T02:30:36;100818.28;;;6.48;100.00
69257;BME280;56376;53.356;-1.748;2023-04-19T02:33:02;100812.22;;;6.48;100.00
69257;BME280;56376;53.356;-1.748;2023-04-19T02:35:27;100808.75;;;6.44;100.00
69257;BME280;56376;53.356;-1.748;2023-04-19T02:37:53;100805.28;;;6.35;100.00
69257;BME280;56376;53.356;-1.748;2023-04-19T02:40:18;100807.00;;;6.37;100.00
69257;BME280;56376;53.356;-1.748;2023-04-19T02:42:45;100794.91;;;6.38;100.00
69257;BME280;56376;53.356;-1.748;2023-04-19T02:45:10;100806.16;;;6.38;100.00
69257;BME280;56376;53.356;-1.748;2023-04-19T02:47:35;100793.19;;;6.38;100.00
69257;BME280;56376;53.356;-1.748;2023-04-19T02:50:01;100791.44;;;6.39;100.00
69257;BME280;56376;53.356;-1.748;2023-04-19T02:52:26;100789.72;;;6.36;100.00
69257;BME280;56376;53.356;-1.748;2023-04-19T02:54:52;100799.22;;;6.37;100.00
69257;BME280;56376;53.356;-1.748;2023-04-19T02:57:17;100792.31;;;6.36;100.00
69257;BME280;56376;53.356;-1.748;2023-04-19T02:59:43;100796.66;;;6.36;100.00
69257;BME280;56376;53.356;-1.748;2023-04-19T03:02:08;100789.69;;;6.35;100.00
69257;BME280;56376;53.356;-1.748;2023-04-19T03:04:33;100800.97;;;6.37;100.00
69257;BME280;56376;53.356;-1.748;2023-04-19T03:07:00;100783.66;;;6.36;100.00
69257;BME280;56376;53.356;-1.748;2023-04-19T03:09:26;100789.72;;;6.38;100.00
69257;BME280;56376;53.356;-1.748;2023-04-19T03:11:51;100784.53;;;6.36;100.00
69257;BME280;56376;53.356;-1.748;2023-04-19T03:14:17;100779.31;;;6.32;100.00
69257;BME280;56376;53.356;-1.748;2023-04-19T03:16:43;100786.25;;;6.36;100.00
69257;BME280;56376;53.356;-1.748;2023-04-19T03:19:08;100784.53;;;6.33;100.00
69257;BME280;56376;53.356;-1.748;2023-04-19T03:21:33;100783.69;;;6.40;100.00
69257;BME280;56376;53.356;-1.748;2023-04-19T03:24:00;100783.69;;;6.40;100.00
69257;BME280;56376;53.356;-1.748;2023-04-19T03:26:25;100781.06;;;6.42;100.00
69257;BME280;56376;53.356;-1.748;2023-04-19T03:28:51;100788.88;;;6.43;100.00
69257;BME280;56376;53.356;-1.748;2023-04-19T03:31:16;100784.50;;;6.42;100.00
69257;BME280;56376;53.356;-1.748;2023-04-19T03:33:42;100778.47;;;6.43;100.00
69257;BME280;56376;53.356;-1.748;2023-04-19T03:36:08;100781.06;;;6.42;100.00
69257;BME280;56376;53.356;-1.748;2023-04-19T03:38:33;100780.22;;;6.46;100.00
69257;BME280;56376;53.356;-1.748;2023-04-19T03:40:58;100788.84;;;6.46;100.00
69257;BME280;56376;53.356;-1.748;2023-04-19T03:43:24;100780.19;;;6.44;100.00
69257;BME280;56376;53.356;-1.748;2023-04-19T03:45:49;100791.47;;;6.43;100.00
69257;BME280;56376;53.356;-1.748;2023-04-19T03:48:15;100774.13;;;6.42;100.00
69257;BME280;56376;53.356;-1.748;2023-04-19T03:50:40;100783.69;;;6.48;100.00
69257;BME280;56376;53.356;-1.748;2023-04-19T03:53:06;100781.09;;;6.48;100.00
69257;BME280;56376;53.356;-1.748;2023-04-19T03:55:31;100781.06;;;6.49;100.00
69257;BME280;56376;53.356;-1.748;2023-04-19T03:57:56;100771.56;;;6.48;100.00
69257;BME280;56376;53.356;-1.748;2023-04-19T04:00:22;100775.88;;;6.49;100.00
69257;BME280;56376;53.356;-1.748;2023-04-19T04:02:47;100770.69;;;6.46;100.00
69257;BME280;56376;53.356;-1.748;2023-04-19T04:05:13;100766.38;;;6.52;100.00
69257;BME280;56376;53.356;-1.748;2023-04-19T04:07:39;100779.31;;;6.50;100.00
69257;BME280;56376;53.356;-1.748;2023-04-19T04:10:05;100768.97;;;6.48;100.00
69257;BME280;56376;53.356;-1.748;2023-04-19T04:12:30;100774.16;;;6.52;100.00
69257;BME280;56376;53.356;-1.748;2023-04-19T04:14:56;100768.09;;;6.46;100.00
69257;BME280;56376;53.356;-1.748;2023-04-19T04:17:21;100776.75;;;6.52;100.00
69257;BME280;56376;53.356;-1.748;2023-04-19T04:19:48;100759.44;;;6.49;100.00
69257;BME280;56376;53.356;-1.748;2023-04-19T04:22:15;100765.47;;;6.53;100.00
69257;BME280;56376;53.356;-1.748;2023-04-19T04:24:40;100757.72;;;6.51;100.00
69257;BME280;56376;53.356;-1.748;2023-04-19T04:27:07;100760.31;;;6.46;100.00
69257;BME280;56376;53.356;-1.748;2023-04-19T04:29:38;100766.38;;;6.45;100.00
69257;BME280;56376;53.356;-1.748;2023-04-19T04:32:05;100771.56;;;6.48;100.00
69257;BME280;56376;53.356;-1.748;2023-04-19T04:34:33;100766.38;;;6.52;100.00
69257;BME280;56376;53.356;-1.748;2023-04-19T04:36:58;100771.53;;;6.50;100.00
69257;BME280;56376;53.356;-1.748;2023-04-19T04:39:24;100770.69;;;6.49;100.00
69257;BME280;56376;53.356;-1.748;2023-04-19T04:41:49;100776.75;;;6.45;100.00
69257;BME280;56376;53.356;-1.748;2023-04-19T04:44:16;100768.09;;;6.43;100.00
69257;BME280;56376;53.356;-1.748;2023-04-19T04:46:41;100768.97;;;6.45;100.00
69257;BME280;56376;53.356;-1.748;2023-04-19T04:49:07;100760.31;;;6.43;100.00
69257;BME280;56376;53.356;-1.748;2023-04-19T04:51:33;100763.78;;;6.45;100.00
69257;BME280;56376;53.356;-1.748;2023-04-19T04:53:58;100775.88;;;6.40;100.00
69257;BME280;56376;53.356;-1.748;2023-04-19T04:56:24;100768.09;;;6.34;100.00
69257;BME280;56376;53.356;-1.748;2023-04-19T04:58:50;100762.91;;;6.28;100.00
69257;BME280;56376;53.356;-1.748;2023-04-19T05:01:16;100769.84;;;6.35;100.00
69257;BME280;56376;53.356;-1.748;2023-04-19T05:03:43;100775.88;;;6.33;100.00
69257;BME280;56376;53.356;-1.748;2023-04-19T05:06:09;100757.69;;;6.37;100.00
69257;BME280;56376;53.356;-1.748;2023-04-19T05:08:34;100777.63;;;6.38;100.00
69257;BME280;56376;53.356;-1.748;2023-04-19T05:11:00;100764.63;;;6.41;100.00
69257;BME280;56376;53.356;-1.748;2023-04-19T05:13:25;100769.81;;;6.44;100.00
69257;BME280;56376;53.356;-1.748;2023-04-19T05:15:50;100771.56;;;6.45;100.00
69257;BME280;56376;53.356;-1.748;2023-04-19T05:18:16;100778.47;;;6.46;100.00
69257;BME280;56376;53.356;-1.748;2023-04-19T05:20:41;100767.22;;;6.46;100.00
69257;BME280;56376;53.356;-1.748;2023-04-19T05:23:07;100776.72;;;6.50;100.00
69257;BME280;56376;53.356;-1.748;2023-04-19T05:25:35;100775.91;;;6.56;100.00
69257;BME280;56376;53.356;-1.748;2023-04-19T05:28:01;100778.50;;;6.48;100.00
69257;BME280;56376;53.356;-1.748;2023-04-19T05:30:27;100768.97;;;6.48;100.00
69257;BME280;56376;53.356;-1.748;2023-04-19T05:32:53;100776.75;;;6.48;100.00
69257;BME280;56376;53.356;-1.748;2023-04-19T05:35:18;100780.22;;;6.50;100.00
69257;BME280;56376;53.356;-1.748;2023-04-19T05:37:44;100787.13;;;6.53;100.00
69257;BME280;56376;53.356;-1.748;2023-04-19T05:40:10;100779.34;;;6.53;100.00
69257;BME280;56376;53.356;-1.748;2023-04-19T05:42:37;100797.53;;;6.53;100.00
69257;BME280;56376;53.356;-1.748;2023-04-19T05:45:03;100779.34;;;6.55;100.00
69257;BME280;56376;53.356;-1.748;2023-04-19T05:47:28;100781.94;;;6.55;100.00
69257;BME280;56376;53.356;-1.748;2023-04-19T05:49:54;100788.84;;;6.57;100.00
69257;BME280;56376;53.356;-1.748;2023-04-19T05:52:19;100790.59;;;6.63;100.00
69257;BME280;56376;53.356;-1.748;2023-04-19T05:54:44;100799.25;;;6.62;100.00
69257;BME280;56376;53.356;-1.748;2023-04-19T05:57:10;100806.16;;;6.60;100.00
69257;BME280;56376;53.356;-1.748;2023-04-19T05:59:35;100802.72;;;6.58;100.00
69257;BME280;56376;53.356;-1.748;2023-04-19T06:02:00;100801.81;;;6.53;100.00
69257;BME280;56376;53.356;-1.748;2023-04-19T06:04:26;100807.91;;;6.45;100.00
69257;BME280;56376;53.356;-1.748;2023-04-19T06:06:51;100806.19;;;6.50;100.00
69257;BME280;56376;53.356;-1.748;2023-04-19T06:09:17;100806.19;;;6.50;100.00
69257;BME280;56376;53.356;-1.748;2023-04-19T06:11:43;100807.03;;;6.57;100.00
69257;BME280;56376;53.356;-1.748;2023-04-19T06:14:10;100799.25;;;6.59;100.00
69257;BME280;56376;53.356;-1.748;2023-04-19T06:16:36;100802.72;;;6.61;100.00
69257;BME280;56376;53.356;-1.748;2023-04-19T06:19:01;100800.97;;;6.64;100.00
69257;BME280;56376;53.356;-1.748;2023-04-19T06:21:31;100804.44;;;6.65;100.00
69257;BME280;56376;53.356;-1.748;2023-04-19T06:23:57;100816.53;;;6.67;100.00
69257;BME280;56376;53.356;-1.748;2023-04-19T06:26:22;100815.69;;;6.68;100.00
69257;BME280;56376;53.356;-1.748;2023-04-19T06:28:48;100815.69;;;6.67;100.00
69257;BME280;56376;53.356;-1.748;2023-04-19T06:31:13;100825.22;;;6.68;100.00
69257;BME280;56376;53.356;-1.748;2023-04-19T06:33:38;100816.56;;;6.72;100.00
69257;BME280;56376;53.356;-1.748;2023-04-19T06:36:04;100804.44;;;6.69;100.00
69257;BME280;56376;53.356;-1.748;2023-04-19T06:38:30;100814.81;;;6.74;100.00
69257;BME280;56376;53.356;-1.748;2023-04-19T06:40:55;100818.28;;;6.75;100.00
69257;BME280;56376;53.356;-1.748;2023-04-19T06:43:20;100816.53;;;6.75;100.00
69257;BME280;56376;53.356;-1.748;2023-04-19T06:45:46;100816.56;;;6.74;100.00
69257;BME280;56376;53.356;-1.748;2023-04-19T06:48:12;100806.19;;;6.78;100.00
69257;BME280;56376;53.356;-1.748;2023-04-19T06:50:37;100807.06;;;6.76;100.00
69257;BME280;56376;53.356;-1.748;2023-04-19T06:53:03;100811.38;;;6.78;100.00
69257;BME280;56376;53.356;-1.748;2023-04-19T06:55:28;100797.50;;;6.82;100.00
69257;BME280;56376;53.356;-1.748;2023-04-19T06:57:53;100820.03;;;6.83;100.00
69257;BME280;56376;53.356;-1.748;2023-04-19T07:00:19;100813.97;;;6.86;100.00
69257;BME280;56376;53.356;-1.748;2023-04-19T07:02:45;100805.31;;;6.84;100.00
69257;BME280;56376;53.356;-1.748;2023-04-19T07:05:10;100813.09;;;6.84;100.00
69257;BME280;56376;53.356;-1.748;2023-04-19T07:07:37;100813.09;;;6.87;100.00
69257;BME280;56376;53.356;-1.748;2023-04-19T07:10:06;100817.44;;;6.88;100.00
69257;BME280;56376;53.356;-1.748;2023-04-19T07:12:31;100808.75;;;6.89;100.00
69257;BME280;56376;53.356;-1.748;2023-04-19T07:14:57;100820.88;;;6.90;100.00
69257;BME280;56376;53.356;-1.748;2023-04-19T07:17:22;100806.19;;;6.90;100.00
69257;BME280;56376;53.356;-1.748;2023-04-19T07:19:48;100821.75;;;6.93;100.00
69257;BME280;56376;53.356;-1.748;2023-04-19T07:22:14;100824.34;;;6.95;100.00
69257;BME280;56376;53.356;-1.748;2023-04-19T07:24:39;100827.78;;;6.92;100.00
69257;BME280;56376;53.356;-1.748;2023-04-19T07:27:06;100824.34;;;6.93;100.00
69257;BME280;56376;53.356;-1.748;2023-04-19T07:29:33;100822.63;;;6.99;100.00
69257;BME280;56376;53.356;-1.748;2023-04-19T07:31:59;100818.25;;;6.98;100.00
69257;BME280;56376;53.356;-1.748;2023-04-19T07:34:26;100811.34;;;7.03;100.00
69257;BME280;56376;53.356;-1.748;2023-04-19T07:36:51;100817.41;;;7.05;100.00
69257;BME280;56376;53.356;-1.748;2023-04-19T07:39:17;100826.91;;;7.07;100.00
69257;BME280;56376;53.356;-1.748;2023-04-19T07:41:43;100818.25;;;7.07;100.00
69257;BME280;56376;53.356;-1.748;2023-04-19T07:44:09;100822.59;;;7.09;100.00
69257;BME280;56376;53.356;-1.748;2023-04-19T07:46:35;100819.13;;;7.07;100.00
69257;BME280;56376;53.356;-1.748;2023-04-19T07:49:01;100826.91;;;7.12;100.00
69257;BME280;56376;53.356;-1.748;2023-04-19T07:51:26;100822.59;;;7.11;100.00
69257;BME280;56376;53.356;-1.748;2023-04-19T07:53:52;100822.56;;;7.15;100.00
69257;BME280;56376;53.356;-1.748;2023-04-19T07:56:17;100829.50;;;7.23;100.00
69257;BME280;56376;53.356;-1.748;2023-04-19T07:58:44;100825.16;;;7.28;100.00
69257;BME280;56376;53.356;-1.748;2023-04-19T08:01:09;100814.75;;;7.32;100.00
69257;BME280;56376;53.356;-1.748;2023-04-19T08:03:35;100821.69;;;7.36;100.00
69257;BME280;56376;53.356;-1.748;2023-04-19T08:06:03;100815.59;;;7.39;100.00
69257;BME280;56376;53.356;-1.748;2023-04-19T08:08:30;100823.41;;;7.44;100.00
69257;BME280;56376;53.356;-1.748;2023-04-19T08:10:55;100816.41;;;7.55;100.00
69257;BME280;56376;53.356;-1.748;2023-04-19T08:13:21;100823.31;;;7.67;100.00
69257;BME280;56376;53.356;-1.748;2023-04-19T08:15:47;100821.56;;;7.72;100.00
69257;BME280;56376;53.356;-1.748;2023-04-19T08:18:12;100838.88;;;7.79;100.00
69257;BME280;56376;53.356;-1.748;2023-04-19T08:20:38;100838.84;;;7.84;100.00
69257;BME280;56376;53.356;-1.748;2023-04-19T08:23:06;100832.78;;;7.85;100.00
69257;BME280;56376;53.356;-1.748;2023-04-19T08:25:33;100841.50;;;7.73;100.00
69257;BME280;56376;53.356;-1.748;2023-04-19T08:27:58;100838.91;;;7.68;100.00
69257;BME280;56376;53.356;-1.748;2023-04-19T08:30:24;100839.78;;;7.72;100.00
69257;BME280;56376;53.356;-1.748;2023-04-19T08:32:49;100823.31;;;7.71;100.00
69257;BME280;56376;53.356;-1.748;2023-04-19T08:35:15;100828.47;;;7.76;100.00
69257;BME280;56376;53.356;-1.748;2023-04-19T08:37:41;100835.38;;;7.85;100.00
69257;BME280;56376;53.356;-1.748;2023-04-19T08:40:07;100833.59;;;7.93;100.00
69257;BME280;56376;53.356;-1.748;2023-04-19T08:42:32;100832.69;;;8.03;100.00
69257;BME280;56376;53.356;-1.748;2023-04-19T08:45:02;100824.81;;;8.17;100.00
69257;BME280;56376;53.356;-1.748;2023-04-19T08:47:31;100831.66;;;8.29;100.00
69257;BME280;56376;53.356;-1.748;2023-04-19T08:49:59;100849.00;;;8.37;100.00
69257;BME280;56376;53.356;-1.748;2023-04-19T08:52:26;100828.16;;;8.42;100.00
69257;BME280;56376;53.356;-1.748;2023-04-19T08:54:53;100838.53;;;8.48;100.00
69257;BME280;56376;53.356;-1.748;2023-04-19T08:57:18;100835.94;;;8.50;100.00
69257;BME280;56376;53.356;-1.748;2023-04-19T08:59:44;100835.03;;;8.51;100.00
69257;BME280;56376;53.356;-1.748;2023-04-19T09:02:13;100846.31;;;8.51;100.00
69257;BME280;56376;53.356;-1.748;2023-04-19T09:04:40;100832.44;;;8.51;100.00
69257;BME280;56376;53.356;-1.748;2023-04-19T09:07:05;100834.19;;;8.52;100.00
69257;BME280;56376;53.356;-1.748;2023-04-19T09:09:33;100850.63;;;8.55;100.00
69257;BME280;56376;53.356;-1.748;2023-04-19T09:12:00;100840.25;;;8.52;100.00
69257;BME280;56376;53.356;-1.748;2023-04-19T09:14:26;100837.63;;;8.55;100.00
69257;BME280;56376;53.356;-1.748;2023-04-19T09:16:52;100840.25;;;8.52;100.00
69257;BME280;56376;53.356;-1.748;2023-04-19T09:19:18;100841.06;;;8.60;100.00
69257;BME280;56376;53.356;-1.748;2023-04-19T09:21:43;100849.75;;;8.59;100.00
69257;BME280;56376;53.356;-1.748;2023-04-19T09:24:09;100837.56;;;8.63;100.00
69257;BME280;56376;53.356;-1.748;2023-04-19T09:26:35;100831.47;;;8.65;100.00
69257;BME280;56376;53.356;-1.748;2023-04-19T09:29:02;100832.25;;;8.75;100.00
69257;BME280;56376;53.356;-1.748;2023-04-19T09:31:30;100826.13;;;8.79;100.00
69257;BME280;56376;53.356;-1.748;2023-04-19T09:33:56;100814.75;;;8.93;100.00
69257;BME280;56376;53.356;-1.748;2023-04-19T09:36:29;100824.19;;;9.01;100.00
69257;BME280;56376;53.356;-1.748;2023-04-19T09:38:56;100814.56;;;9.11;100.00
69257;BME280;56376;53.356;-1.748;2023-04-19T09:41:22;100828.38;;;9.22;100.00
69257;BME280;56376;53.356;-1.748;2023-04-19T09:43:47;100806.56;;;9.26;100.00
69257;BME280;56376;53.356;-1.748;2023-04-19T09:51:45;100809.63;;;9.64;100.00
69257;BME280;56376;53.356;-1.748;2023-04-19T09:54:12;100792.84;;;9.86;100.00
69257;BME280;56376;53.356;-1.748;2023-04-19T09:56:38;100801.16;;;10.13;100.00
69257;BME280;56376;53.356;-1.748;2023-04-19T09:59:05;100804.34;;;10.35;100.00
69257;BME280;56376;53.356;-1.748;2023-04-19T10:01:41;100812.25;;;10.30;100.00
69257;BME280;56376;53.356;-1.748;2023-04-19T10:04:09;100799.22;;;10.29;100.00
69257;BME280;56376;53.356;-1.748;2023-04-19T10:06:35;100801.75;;;10.35;100.00
69257;BME280;56376;53.356;-1.748;2023-04-19T10:09:02;100811.34;;;10.34;100.00
69257;BME280;56376;53.356;-1.748;2023-04-19T10:11:37;100807.94;;;10.29;100.00
69257;BME280;56376;53.356;-1.748;2023-04-19T10:14:14;100800.97;;;10.25;100.00
69257;BME280;56376;53.356;-1.748;2023-04-19T10:16:39;100795.00;;;10.18;100.00
69257;BME280;56376;53.356;-1.748;2023-04-19T10:19:07;100799.38;;;10.16;100.00
69257;BME280;56376;53.356;-1.748;2023-04-19T10:21:34;100797.63;;;10.17;100.00
69257;BME280;56376;53.356;-1.748;2023-04-19T10:24:00;100790.69;;;10.16;100.00
69257;BME280;56376;53.356;-1.748;2023-04-19T10:26:26;100800.34;;;10.11;100.00
69257;BME280;56376;53.356;-1.748;2023-04-19T10:28:56;100787.25;;;10.12;100.00
69257;BME280;56376;53.356;-1.748;2023-04-19T10:31:24;100789.91;;;10.08;100.00
69257;BME280;56376;53.356;-1.748;2023-04-19T10:33:49;100792.63;;;10.03;100.00
69257;BME280;56376;53.356;-1.748;2023-04-19T10:36:19;100789.09;;;10.04;100.00
69257;BME280;56376;53.356;-1.748;2023-04-19T10:38:47;100795.19;;;10.06;100.00
69257;BME280;56376;53.356;-1.748;2023-04-19T10:41:14;100796.03;;;10.07;100.00
69257;BME280;56376;53.356;-1.748;2023-04-19T10:44:27;100796.88;;;10.09;100.00
69257;BME280;56376;53.356;-1.748;2023-04-19T10:48:58;100784.69;;;10.09;100.00
69257;BME280;56376;53.356;-1.748;2023-04-19T10:51:35;100786.31;;;10.18;100.00
69257;BME280;56376;53.356;-1.748;2023-04-19T10:54:02;100777.47;;;10.25;100.00
69257;BME280;56376;53.356;-1.748;2023-04-19T11:01:38;100777.38;;;10.36;100.00
69257;BME280;56376;53.356;-1.748;2023-04-19T11:04:08;100769.47;;;10.39;100.00
69257;BME280;56376;53.356;-1.748;2023-04-19T11:06:36;100767.78;;;10.35;100.00
69257;BME280;56376;53.356;-1.748;2023-04-19T11:09:01;100779.06;;;10.38;100.00
69257;BME280;56376;53.356;-1.748;2023-04-19T11:11:33;100791.13;;;10.46;100.00
69257;BME280;56376;53.356;-1.748;2023-04-19T11:14:01;100765.84;;;10.48;100.00
69257;BME280;56376;53.356;-1.748;2023-04-19T11:16:27;100773.53;;;10.58;100.00
69257;BME280;56376;53.356;-1.748;2023-04-19T11:18:52;100771.66;;;10.65;100.00
69257;BME280;56376;53.356;-1.748;2023-04-19T11:21:18;100778.50;;;10.72;100.00
69257;BME280;56376;53.356;-1.748;2023-04-19T11:23:44;100784.47;;;10.80;100.00
69257;BME280;56376;53.356;-1.748;2023-04-19T11:26:11;100772.16;;;10.86;100.00
69257;BME280;56376;53.356;-1.748;2023-04-19T11:28:37;100779.09;;;10.88;100.00
69257;BME280;56376;53.356;-1.748;2023-04-19T11:31:04;100779.03;;;10.93;100.00
69257;BME280;56376;53.356;-1.748;2023-04-19T11:33:36;100769.34;;;10.98;100.00
69257;BME280;56376;53.356;-1.748;2023-04-19T11:36:02;100757.94;;;11.02;100.00
69257;BME280;56376;53.356;-1.748;2023-04-19T11:38:28;100764.00;;;11.04;100.00
69257;BME280;56376;53.356;-1.748;2023-04-19T11:40:59;100750.91;;;11.05;100.00
69257;BME280;56376;53.356;-1.748;2023-04-19T11:43:34;100764.72;;;11.12;100.00
69257;BME280;56376;53.356;-1.748;2023-04-19T11:46:07;100756.03;;;11.12;100.00
69257;BME280;56376;53.356;-1.748;2023-04-19T11:48:33;100755.97;;;11.15;100.00
69257;BME280;56376;53.356;-1.748;2023-04-19T11:50:59;100754.19;;;11.15;100.00
69257;BME280;56376;53.356;-1.748;2023-04-19T11:53:26;100759.38;;;11.18;100.00
69257;BME280;56376;53.356;-1.748;2023-04-19T11:55:54;100754.09;;;11.21;100.00
69257;BME280;56376;53.356;-1.748;2023-04-19T11:58:24;100749.66;;;11.26;100.00
69257;BME280;56376;53.356;-1.748;2023-04-19T12:00:50;100751.22;;;11.34;98.61
69257;BME280;56376;53.356;-1.748;2023-04-19T12:03:15;100735.34;;;11.43;99.20
69257;BME280;56376;53.356;-1.748;2023-04-19T12:06:15;100742.03;;;11.58;97.02
69257;BME280;56376;53.356;-1.748;2023-04-19T12:08:48;100748.84;;;11.65;98.39
69257;BME280;56376;53.356;-1.748;2023-04-19T12:11:16;100739.16;;;11.68;98.87
69257;BME280;56376;53.356;-1.748;2023-04-19T12:13:43;100735.66;;;11.69;98.11
69257;BME280;56376;53.356;-1.748;2023-04-19T12:16:09;100756.59;;;11.69;97.56
69257;BME280;56376;53.356;-1.748;2023-04-19T12:21:07;100747.16;;;11.62;93.09
69257;BME280;56376;53.356;-1.748;2023-04-19T12:23:33;100743.63;;;11.63;93.47
69257;BME280;56376;53.356;-1.748;2023-04-19T12:26:03;100745.41;;;11.61;93.05
69257;BME280;56376;53.356;-1.748;2023-04-19T12:28:29;100742.03;;;11.56;93.54
69257;BME280;56376;53.356;-1.748;2023-04-19T12:30:55;100753.22;;;11.64;91.23
69257;BME280;56376;53.356;-1.748;2023-04-19T12:33:20;100743.63;;;11.65;92.70
69257;BME280;56376;53.356;-1.748;2023-04-19T12:35:46;100735.72;;;11.66;91.53
69257;BME280;56376;53.356;-1.748;2023-04-19T12:38:11;100723.53;;;11.65;91.06
69257;BME280;56376;53.356;-1.748;2023-04-19T12:40:36;100729.69;;;11.64;91.82
69257;BME280;56376;53.356;-1.748;2023-04-19T12:43:02;100741.72;;;11.72;91.53
69257;BME280;56376;53.356;-1.748;2023-04-19T12:45:27;100731.09;;;11.79;89.63
69257;BME280;56376;53.356;-1.748;2023-04-19T12:47:53;100733.66;;;11.81;90.93
69257;BME280;56376;53.356;-1.748;2023-04-19T12:50:18;100735.22;;;11.91;90.79